createdAt,value
2022-11-24T00:01:27.289Z,56.22
2022-11-24T00:04:11.995Z,55.93
2022-11-24T00:06:56.819Z,57.76
2022-11-24T00:09:41.512Z,56.86
2022-11-24T00:12:26.349Z,56.18
2022-11-24T00:15:10.902Z,54.83
2022-11-24T00:17:55.793Z,55.06
2022-11-24T00:20:40.492Z,54.85
2022-11-24T00:23:25.354Z,56.46
2022-11-24T00:26:10.075Z,56.66
2022-11-24T00:28:54.852Z,56.74
2022-11-24T00:31:39.738Z,56.38
2022-11-24T00:34:24.392Z,55.00
2022-11-24T00:37:09.298Z,55.46
2022-11-24T00:39:54.115Z,56.67
2022-11-24T00:42:39.021Z,55.65
2022-11-24T00:45:23.736Z,55.85
2022-11-24T00:48:08.529Z,56.77
2022-11-24T00:50:53.245Z,56.93
2022-11-24T00:53:38.046Z,58.54
2022-11-24T00:56:24.005Z,58.39
2022-11-24T00:59:08.797Z,57.85
2022-11-24T01:01:53.583Z,57.53
2022-11-24T01:04:38.220Z,56.48
2022-11-24T01:07:22.864Z,56.99
2022-11-24T01:10:07.621Z,57.42
2022-11-24T01:12:52.388Z,57.69
2022-11-24T01:15:37.244Z,59.04
2022-11-24T01:18:22.532Z,57.46
2022-11-24T01:21:10.274Z,57.59
2022-11-24T01:23:55.067Z,57.58
2022-11-24T01:26:39.799Z,57.82
2022-11-24T01:29:24.578Z,56.70
2022-11-24T01:32:09.349Z,58.10
2022-11-24T01:34:53.978Z,58.85
2022-11-24T01:37:39.090Z,58.55
2022-11-24T01:40:23.849Z,57.69
2022-11-24T01:43:08.574Z,57.76
2022-11-24T01:45:53.476Z,58.98
2022-11-24T01:48:38.647Z,57.65
2022-11-24T01:51:23.539Z,57.25
2022-11-24T01:54:08.245Z,57.29
2022-11-24T01:56:52.984Z,57.58
2022-11-24T01:59:37.569Z,56.37
2022-11-24T02:02:22.484Z,56.47
2022-11-24T02:05:07.151Z,56.44
2022-11-24T02:07:52.063Z,57.15
2022-11-24T02:10:37.329Z,58.08
2022-11-24T02:13:22.107Z,58.92
2022-11-24T02:16:06.910Z,58.17
2022-11-24T02:18:51.575Z,58.65
2022-11-24T02:21:36.318Z,57.55
2022-11-24T02:24:21.174Z,58.02
2022-11-24T02:27:05.904Z,58.33
2022-11-24T02:29:50.688Z,58.24
2022-11-24T02:32:35.387Z,57.19
2022-11-24T02:35:20.138Z,56.78
2022-11-24T02:38:04.909Z,56.28
2022-11-24T02:40:49.666Z,56.00
2022-11-24T02:43:34.391Z,55.61
2022-11-24T02:46:19.308Z,55.80
2022-11-24T02:49:03.895Z,56.85
2022-11-24T02:51:48.729Z,56.10
2022-11-24T02:54:33.728Z,55.39
2022-11-24T02:57:18.826Z,55.98
2022-11-24T03:00:03.527Z,57.25
2022-11-24T03:02:48.322Z,56.33
2022-11-24T03:05:33.116Z,56.79
2022-11-24T03:08:17.752Z,58.34
2022-11-24T03:11:02.615Z,57.70
2022-11-24T03:13:47.224Z,57.78
2022-11-24T03:16:31.995Z,57.49
2022-11-24T03:19:16.681Z,57.18
2022-11-24T03:22:01.540Z,56.64
2022-11-24T03:24:46.173Z,56.58
2022-11-24T03:27:30.894Z,56.76
2022-11-24T03:30:15.539Z,56.66
2022-11-24T03:33:00.381Z,57.57
2022-11-24T03:35:45.131Z,57.13
2022-11-24T03:38:29.921Z,57.14
2022-11-24T03:41:14.684Z,57.16
2022-11-24T03:43:59.430Z,58.44
2022-11-24T03:46:44.290Z,57.66
2022-11-24T03:49:28.973Z,56.67
2022-11-24T03:52:13.644Z,56.92
2022-11-24T03:54:58.274Z,58.00
2022-11-24T03:57:43.057Z,58.49
2022-11-24T04:00:27.824Z,58.01
2022-11-24T04:03:12.650Z,57.40
2022-11-24T04:05:57.335Z,57.42
2022-11-24T04:08:42.077Z,57.90
2022-11-24T04:11:26.855Z,58.50
2022-11-24T04:14:13.795Z,58.03
2022-11-24T04:16:58.907Z,57.77
2022-11-24T04:19:43.457Z,57.47
2022-11-24T04:22:28.147Z,57.42
2022-11-24T04:25:12.833Z,57.32
2022-11-24T04:27:57.645Z,57.77
2022-11-24T04:30:42.502Z,57.02
2022-11-24T04:33:27.188Z,56.42
2022-11-24T04:36:12.009Z,56.51
2022-11-24T04:39:24.378Z,56.86
2022-11-24T04:42:01.649Z,57.74
2022-11-24T04:44:46.343Z,56.93
2022-11-24T04:47:31.088Z,57.39
2022-11-24T04:50:15.890Z,56.88
2022-11-24T04:53:00.592Z,55.74
2022-11-24T04:55:45.324Z,56.39
2022-11-24T04:58:29.959Z,56.28
2022-11-24T05:01:14.885Z,55.59
2022-11-24T05:03:59.422Z,56.74
2022-11-24T05:06:44.171Z,57.32
2022-11-24T05:09:41.949Z,57.27
2022-11-24T05:12:33.634Z,56.54
2022-11-24T05:15:18.416Z,56.93
2022-11-24T05:18:03.228Z,56.44
2022-11-24T05:20:48.020Z,55.66
2022-11-24T05:23:32.803Z,55.86
2022-11-24T05:26:17.591Z,56.21
2022-11-24T05:29:02.559Z,55.07
2022-11-24T05:31:47.322Z,54.85
2022-11-24T05:34:32.766Z,55.54
2022-11-24T05:37:17.756Z,55.77
2022-11-24T05:40:02.582Z,56.36
2022-11-24T05:42:48.333Z,56.00
2022-11-24T05:45:33.605Z,55.26
2022-11-24T05:48:18.490Z,55.87
2022-11-24T05:51:07.877Z,56.34
2022-11-24T05:53:53.935Z,55.80
2022-11-24T05:56:38.757Z,56.67
2022-11-24T05:59:23.524Z,56.43
2022-11-24T06:02:08.577Z,55.47
2022-11-24T06:04:53.532Z,55.20
2022-11-24T06:07:38.492Z,54.72
2022-11-24T06:10:23.294Z,54.07
2022-11-24T06:13:08.117Z,54.36
2022-11-24T06:15:53.300Z,55.46
2022-11-24T06:18:38.223Z,55.06
2022-11-24T06:21:23.032Z,54.89
2022-11-24T06:24:07.709Z,54.98
2022-11-24T06:26:52.602Z,55.93
2022-11-24T06:29:37.383Z,56.54
2022-11-24T06:32:22.125Z,55.74
2022-11-24T06:35:06.875Z,56.12
2022-11-24T06:37:51.661Z,55.01
2022-11-24T06:40:36.380Z,53.66
2022-11-24T06:43:21.342Z,54.02
2022-11-24T06:46:06.061Z,53.09
2022-11-24T06:48:50.745Z,52.72
2022-11-24T06:51:36.839Z,53.23
2022-11-24T06:54:21.660Z,53.17
2022-11-24T06:57:06.404Z,53.48
2022-11-24T06:59:51.105Z,52.74
2022-11-24T07:02:37.320Z,53.56
2022-11-24T07:05:24.788Z,53.02
2022-11-24T07:08:14.612Z,53.43
2022-11-24T07:11:02.358Z,52.62
2022-11-24T07:13:47.103Z,53.65
2022-11-24T07:16:31.935Z,53.54
2022-11-24T07:19:21.612Z,53.73
2022-11-24T07:22:09.348Z,53.39
2022-11-24T07:24:54.031Z,53.92
2022-11-24T07:27:38.770Z,52.80
2022-11-24T07:30:23.512Z,52.60
2022-11-24T07:33:08.267Z,52.60
2022-11-24T07:35:53.130Z,52.67
2022-11-24T07:38:37.963Z,52.50
2022-11-24T07:41:22.852Z,51.58
2022-11-24T07:44:07.657Z,51.74
2022-11-24T07:46:52.352Z,52.21
2022-11-24T07:49:37.094Z,51.89
2022-11-24T07:52:21.761Z,50.99
2022-11-24T07:55:06.443Z,49.96
2022-11-24T07:57:51.212Z,50.13
2022-11-24T08:00:36.062Z,51.04
2022-11-24T08:03:20.800Z,50.79
2022-11-24T08:06:24.127Z,49.85
2022-11-24T08:09:10.453Z,50.17
2022-11-24T08:11:55.235Z,50.67
2022-11-24T08:14:40.101Z,50.19
2022-11-24T08:17:24.845Z,50.71
2022-11-24T08:20:09.756Z,50.51
2022-11-24T08:22:54.700Z,50.27
2022-11-24T08:25:39.843Z,50.48
2022-11-24T08:28:24.658Z,48.64
2022-11-24T08:31:09.578Z,48.18
2022-11-24T08:33:54.330Z,47.56
2022-11-24T08:36:39.267Z,48.07
2022-11-24T08:39:24.050Z,48.66
2022-11-24T08:42:08.768Z,48.03
2022-11-24T08:44:58.861Z,47.25
2022-11-24T08:47:43.884Z,47.42
2022-11-24T08:50:28.623Z,47.34
2022-11-24T08:53:13.433Z,47.03
2022-11-24T08:55:58.232Z,47.89
2022-11-24T08:58:43.015Z,48.31
2022-11-24T09:01:28.224Z,48.43
2022-11-24T09:04:13.366Z,47.71
2022-11-24T09:06:58.021Z,48.50
2022-11-24T09:09:42.828Z,47.90
2022-11-24T09:12:27.549Z,46.09
2022-11-24T09:15:12.452Z,47.04
2022-11-24T09:17:57.258Z,50.44
2022-11-24T09:20:42.040Z,47.61
2022-11-24T09:23:26.955Z,48.03
2022-11-24T09:26:11.612Z,49.22
2022-11-24T09:28:56.458Z,49.79
2022-11-24T09:31:41.294Z,51.75
2022-11-24T09:34:26.031Z,52.71
2022-11-24T09:37:10.848Z,51.86
2022-11-24T09:39:55.661Z,50.40
2022-11-24T09:42:40.424Z,49.71
2022-11-24T09:45:48.917Z,50.50
2022-11-24T09:48:30.339Z,49.66
2022-11-24T09:51:14.964Z,48.64
2022-11-24T09:53:59.842Z,48.85
2022-11-24T09:56:44.670Z,47.20
2022-11-24T09:59:29.522Z,49.06
2022-11-24T10:02:14.231Z,47.85
2022-11-24T10:04:59.101Z,46.59
2022-11-24T10:07:44.458Z,48.43
2022-11-24T10:10:29.491Z,51.29
2022-11-24T10:13:14.268Z,51.29
2022-11-24T10:15:59.019Z,50.54
2022-11-24T10:18:44.404Z,51.17
2022-11-24T10:21:29.226Z,52.48
2022-11-24T10:24:14.027Z,53.24
2022-11-24T10:26:58.875Z,53.53
2022-11-24T10:29:43.598Z,53.72
2022-11-24T10:32:28.375Z,53.23
2022-11-24T10:35:13.075Z,54.21
2022-11-24T10:37:57.838Z,54.17
2022-11-24T10:40:56.999Z,53.58
2022-11-24T10:43:42.590Z,53.10
2022-11-24T10:46:27.543Z,54.31
2022-11-24T10:49:12.807Z,52.49
2022-11-24T10:51:57.540Z,51.17
2022-11-24T10:54:42.225Z,51.29
2022-11-24T10:57:27.033Z,50.77
2022-11-24T11:00:11.756Z,49.91
2022-11-24T11:02:56.543Z,50.45
2022-11-24T11:05:41.789Z,50.73
2022-11-24T11:08:26.466Z,51.19
2022-11-24T11:11:11.080Z,49.94
2022-11-24T11:14:02.948Z,51.47
2022-11-24T11:16:48.673Z,53.73
2022-11-24T11:19:48.429Z,49.26
2022-11-24T11:22:33.880Z,49.10
2022-11-24T11:25:18.572Z,48.20
2022-11-24T11:28:08.597Z,46.47
2022-11-24T11:34:04.628Z,45.44
2022-11-24T11:36:51.234Z,46.34
2022-11-24T11:39:36.043Z,43.66
2022-11-24T11:42:45.364Z,44.08
2022-11-24T11:45:25.591Z,48.11
2022-11-24T11:48:10.407Z,47.44
2022-11-24T11:54:00.628Z,51.79
2022-11-24T11:56:45.718Z,51.33
2022-11-24T11:59:30.573Z,51.42
2022-11-24T12:02:15.345Z,52.75
2022-11-24T12:05:00.058Z,52.47
2022-11-24T12:07:44.865Z,52.21
2022-11-24T12:10:29.466Z,53.56
2022-11-24T12:13:14.287Z,53.24
2022-11-24T12:15:58.886Z,53.92
2022-11-24T12:18:59.299Z,54.72
2022-11-24T12:21:44.486Z,52.20
2022-11-24T12:24:29.201Z,54.21
2022-11-24T12:27:16.755Z,54.61
2022-11-24T12:30:06.162Z,54.07
2022-11-24T12:32:50.881Z,53.06
2022-11-24T12:35:35.621Z,52.60
2022-11-24T12:38:20.314Z,53.67
2022-11-24T12:41:39.904Z,51.25
2022-11-24T12:44:09.920Z,51.85
2022-11-24T12:46:54.784Z,52.26
2022-11-24T12:49:39.992Z,50.10
2022-11-24T12:52:24.765Z,49.15
2022-11-24T12:55:09.716Z,48.58
2022-11-24T12:57:54.432Z,50.74
2022-11-24T13:00:39.181Z,48.74
2022-11-24T13:03:23.981Z,45.38
2022-11-24T13:06:08.714Z,46.43
2022-11-24T13:08:53.384Z,47.82
2022-11-24T13:11:38.279Z,43.66
2022-11-24T13:14:22.947Z,42.28
2022-11-24T13:17:30.047Z,48.59
2022-11-24T13:20:12.748Z,47.86
2022-11-24T13:22:57.410Z,47.20
2022-11-24T13:25:42.147Z,46.83
2022-11-24T13:28:53.959Z,45.61
2022-11-24T13:31:31.817Z,45.24
2022-11-24T13:34:16.539Z,44.40
2022-11-24T13:37:28.927Z,44.30
2022-11-24T13:40:06.109Z,44.19
2022-11-24T13:42:50.916Z,43.56
2022-11-24T13:45:35.546Z,43.50
2022-11-24T13:48:20.774Z,44.05
2022-11-24T13:51:05.953Z,43.66
2022-11-24T13:53:50.756Z,44.39
2022-11-24T13:56:35.701Z,43.94
2022-11-24T13:59:20.483Z,43.85
2022-11-24T14:02:05.311Z,43.04
2022-11-24T14:04:50.113Z,44.16
2022-11-24T14:07:34.811Z,45.86
2022-11-24T14:10:19.949Z,46.30
2022-11-24T14:13:04.834Z,46.30
2022-11-24T14:15:49.494Z,46.20
2022-11-24T14:18:34.190Z,47.38
2022-11-24T14:21:18.896Z,45.34
2022-11-24T14:24:03.484Z,46.07
2022-11-24T14:26:48.238Z,45.72
2022-11-24T14:29:32.920Z,45.25
2022-11-24T14:32:17.710Z,45.62
2022-11-24T14:35:02.464Z,45.91
2022-11-24T14:37:47.132Z,45.78
2022-11-24T14:40:31.911Z,45.99
2022-11-24T14:43:16.743Z,46.45
2022-11-24T14:46:01.454Z,46.52
2022-11-24T14:48:46.243Z,45.53
2022-11-24T14:51:31.019Z,45.97
2022-11-24T14:54:15.692Z,46.52
2022-11-24T14:57:00.370Z,46.55
2022-11-24T14:59:45.079Z,46.83
2022-11-24T15:02:30.103Z,47.26
2022-11-24T15:05:14.820Z,46.90
2022-11-24T15:07:59.723Z,47.19
2022-11-24T15:10:44.378Z,47.06
2022-11-24T15:13:29.083Z,46.93
2022-11-24T15:16:13.859Z,46.47
2022-11-24T15:18:58.762Z,46.05
2022-11-24T15:21:43.373Z,46.48
2022-11-24T15:24:28.269Z,46.48
2022-11-24T15:27:13.004Z,46.48
2022-11-24T15:29:57.659Z,46.15
2022-11-24T15:32:42.388Z,46.53
2022-11-24T15:35:27.100Z,46.46
2022-11-24T15:38:11.867Z,46.85
2022-11-24T15:40:56.633Z,46.74
2022-11-24T15:43:41.590Z,46.75
2022-11-24T15:46:26.341Z,47.30
2022-11-24T15:49:11.102Z,46.56
2022-11-24T15:51:55.760Z,46.61
2022-11-24T15:54:40.559Z,46.98
2022-11-24T15:57:25.360Z,47.41
2022-11-24T16:00:10.160Z,48.55
2022-11-24T16:02:54.943Z,48.47
2022-11-24T16:05:39.659Z,48.30
2022-11-24T16:08:24.457Z,48.59
2022-11-24T16:11:09.110Z,48.73
2022-11-24T16:13:54.617Z,48.10
2022-11-24T16:16:39.879Z,48.22
2022-11-24T16:19:25.222Z,48.18
2022-11-24T16:22:09.868Z,47.97
2022-11-24T16:24:54.724Z,47.85
2022-11-24T16:27:39.695Z,46.96
2022-11-24T16:30:24.382Z,47.83
2022-11-24T16:33:09.131Z,47.87
2022-11-24T16:35:53.856Z,48.07
2022-11-24T16:38:38.659Z,47.53
2022-11-24T16:41:23.290Z,48.09
2022-11-24T16:44:08.050Z,48.28
2022-11-24T16:46:52.843Z,48.38
2022-11-24T16:49:37.581Z,47.56
2022-11-24T16:52:22.289Z,47.75
2022-11-24T16:55:07.009Z,46.49
2022-11-24T16:57:51.877Z,45.72
2022-11-24T17:00:36.552Z,45.85
2022-11-24T17:03:21.351Z,45.61
2022-11-24T17:06:06.050Z,45.23
2022-11-24T17:08:50.987Z,45.62
2022-11-24T17:11:35.768Z,45.01
2022-11-24T17:14:20.755Z,45.13
2022-11-24T17:17:05.704Z,44.34
2022-11-24T17:19:50.677Z,43.00
2022-11-24T17:22:35.577Z,43.10
2022-11-24T17:25:20.292Z,42.81
2022-11-24T17:28:05.107Z,43.04
2022-11-24T17:30:49.807Z,43.25
2022-11-24T17:33:34.618Z,41.89
2022-11-24T17:36:19.670Z,40.27
2022-11-24T17:39:04.416Z,41.24
2022-11-24T17:41:49.130Z,42.67
2022-11-24T17:44:34.044Z,41.80
2022-11-24T17:47:19.253Z,42.15
2022-11-24T17:50:04.026Z,42.65
2022-11-24T17:52:48.794Z,42.94
2022-11-24T17:55:33.491Z,42.50
2022-11-24T17:58:18.282Z,42.38
2022-11-24T18:01:02.968Z,42.78
2022-11-24T18:03:53.150Z,42.96
2022-11-24T18:06:38.730Z,43.25
2022-11-24T18:09:23.484Z,43.37
2022-11-24T18:12:08.266Z,43.74
2022-11-24T18:14:52.882Z,43.25
2022-11-24T18:17:37.666Z,44.56
2022-11-24T18:20:22.458Z,45.54
2022-11-24T18:23:07.399Z,45.18
2022-11-24T18:25:52.176Z,44.79
2022-11-24T18:28:36.996Z,45.56
2022-11-24T18:31:21.745Z,45.67
2022-11-24T18:34:06.432Z,45.30
2022-11-24T18:36:51.288Z,45.68
2022-11-24T18:39:36.000Z,46.28
2022-11-24T18:42:20.710Z,46.15
2022-11-24T18:45:05.293Z,46.06
2022-11-24T18:47:50.062Z,46.17
2022-11-24T18:50:34.584Z,46.51
2022-11-24T18:53:19.323Z,47.28
2022-11-24T18:56:04.041Z,46.79
2022-11-24T18:58:49.125Z,45.99
2022-11-24T19:01:33.867Z,46.62
2022-11-24T19:04:19.016Z,46.81
2022-11-24T19:07:03.742Z,47.84
2022-11-24T19:09:48.451Z,47.76
2022-11-24T19:12:33.190Z,47.76
2022-11-24T19:15:17.899Z,46.69
2022-11-24T19:18:02.671Z,46.61
2022-11-24T19:20:47.447Z,46.13
2022-11-24T19:23:32.377Z,45.85
2022-11-24T19:26:17.046Z,46.45
2022-11-24T19:29:01.808Z,47.00
2022-11-24T19:31:46.673Z,47.64
2022-11-24T19:34:31.475Z,47.45
2022-11-24T19:37:16.325Z,46.82
2022-11-24T19:40:00.982Z,47.05
2022-11-24T19:42:45.766Z,46.58
2022-11-24T19:45:30.397Z,46.38
2022-11-24T19:48:15.564Z,45.47
2022-11-24T19:51:00.221Z,45.86
2022-11-24T19:53:44.988Z,45.57
2022-11-24T19:56:29.832Z,45.20
2022-11-24T19:59:14.590Z,45.16
2022-11-24T20:01:59.744Z,45.71
2022-11-24T20:04:44.758Z,46.13
2022-11-24T20:07:29.682Z,45.41
2022-11-24T20:10:14.770Z,44.08
2022-11-24T20:12:59.618Z,44.28
2022-11-24T20:15:44.325Z,45.32
2022-11-24T20:18:28.944Z,44.21
2022-11-24T20:21:13.689Z,44.13
2022-11-24T20:23:58.382Z,44.69
2022-11-24T20:26:43.270Z,43.78
2022-11-24T20:29:28.008Z,43.88
2022-11-24T20:32:12.918Z,44.24
2022-11-24T20:34:57.804Z,45.63
2022-11-24T20:37:42.630Z,45.89
2022-11-24T20:40:27.357Z,45.22
2022-11-24T20:43:12.208Z,46.31
2022-11-24T20:45:57.008Z,46.40
2022-11-24T20:48:41.774Z,45.53
2022-11-24T20:51:26.469Z,43.96
2022-11-24T20:54:11.229Z,43.09
2022-11-24T20:56:56.119Z,43.41
2022-11-24T20:59:40.985Z,43.46
2022-11-24T21:02:25.887Z,43.22
2022-11-24T21:05:10.527Z,44.27
2022-11-24T21:07:55.537Z,44.95
2022-11-24T21:10:40.219Z,44.32
2022-11-24T21:13:25.004Z,44.78
2022-11-24T21:16:09.879Z,46.33
2022-11-24T21:18:54.987Z,47.22
2022-11-24T21:21:39.642Z,47.05
2022-11-24T21:24:24.400Z,47.13
2022-11-24T21:27:09.379Z,46.60
2022-11-24T21:29:54.055Z,46.84
2022-11-24T21:32:38.946Z,46.97
2022-11-24T21:35:23.754Z,47.59
2022-11-24T21:38:08.618Z,46.28
2022-11-24T21:40:53.376Z,46.59
2022-11-24T21:43:38.167Z,46.64
2022-11-24T21:46:22.944Z,46.28
2022-11-24T21:49:07.664Z,46.48
2022-11-24T21:51:52.481Z,46.29
2022-11-24T21:54:37.524Z,46.45
2022-11-24T21:57:22.553Z,46.44
2022-11-24T22:00:07.227Z,46.13
2022-11-24T22:02:52.112Z,45.99
2022-11-24T22:05:36.960Z,46.56
2022-11-24T22:08:21.813Z,46.67
2022-11-24T22:11:06.608Z,48.00
2022-11-24T22:13:51.518Z,48.36
2022-11-24T22:16:36.230Z,47.55
2022-11-24T22:19:21.007Z,46.61
2022-11-24T22:22:05.792Z,46.53
2022-11-24T22:24:50.496Z,46.45
2022-11-24T22:27:35.305Z,46.77
2022-11-24T22:30:20.050Z,46.96
2022-11-24T22:33:04.859Z,46.76
2022-11-24T22:35:49.434Z,46.68
2022-11-24T22:38:34.319Z,46.01
2022-11-24T22:41:19.116Z,46.45
2022-11-24T22:44:04.056Z,45.54
2022-11-24T22:46:48.776Z,45.37
2022-11-24T22:49:33.477Z,45.36
2022-11-24T22:52:18.126Z,46.40
2022-11-24T22:55:02.734Z,46.50
2022-11-24T22:57:48.389Z,45.17
2022-11-24T23:00:33.797Z,45.23
2022-11-24T23:03:18.927Z,45.33
2022-11-24T23:06:04.173Z,43.82
2022-11-24T23:08:48.859Z,41.47
2022-11-24T23:11:37.764Z,42.67
2022-11-24T23:14:23.324Z,42.87
2022-11-24T23:17:07.985Z,42.77
2022-11-24T23:19:52.753Z,41.89
2022-11-24T23:22:37.427Z,41.68
2022-11-24T23:25:22.426Z,42.62
2022-11-24T23:28:07.398Z,43.22
2022-11-24T23:30:52.243Z,42.28
2022-11-24T23:33:36.884Z,42.72
2022-11-24T23:36:21.814Z,43.00
2022-11-24T23:39:06.602Z,43.96
2022-11-24T23:41:51.302Z,45.70
2022-11-24T23:44:36.125Z,46.07
2022-11-24T23:47:21.283Z,45.42
2022-11-24T23:50:06.044Z,45.43
2022-11-24T23:52:50.788Z,46.34
2022-11-24T23:55:35.425Z,46.31
2022-11-24T23:58:20.059Z,45.97
